Time;durP1;ratioP1;P1;durP2;ratioP2;P2;SDS_P1;SDS_P2;PMS_P1;PMS_P2;Temp;Humidity;BMP_temperature;BMP_pressure;BME280_temperature;BME280_humidity;BME280_pressure;Samples;Min_cycle;Max_cycle;Signal;HPM_P1;HPM_P2
2022/07/17 00:01:14;;;;;;;3.55;2.50;;;;;;;;;;1756684;80;21037;-64
2022/07/17 00:03:41;;;;;;;3.60;2.45;;;;;;;;;;1753180;82;21037;-65
2022/07/17 00:06:08;;;;;;;5.37;2.58;;;;;;;;;;1753039;82;21064;-64
2022/07/17 00:08:35;;;;;;;3.67;2.70;;;;;;;;;;1753132;82;21057;-64
2022/07/17 00:11:01;;;;;;;4.15;3.00;;;;;;;;;;1748469;82;21241;-64
2022/07/17 00:13:27;;;;;;;4.30;2.65;;;;;;;;;;1739681;82;21545;-64
2022/07/17 00:15:53;;;;;;;4.25;2.85;;;;;;;;;;1743330;82;21024;-64
2022/07/17 00:18:20;;;;;;;4.30;2.98;;;;;;;;;;1738246;82;21057;-63
2022/07/17 00:20:46;;;;;;;5.25;2.85;;;;;;;;;;1739586;82;21096;-64
2022/07/17 00:23:12;;;;;;;6.05;2.77;;;;;;;;;;1739044;82;21057;-64
2022/07/17 00:25:38;;;;;;;5.22;2.80;;;;;;;;;;1739552;82;21049;-65
2022/07/17 00:28:07;;;;;;;6.03;2.70;;;;;;;;;;1738704;82;21600;-65
2022/07/17 00:30:33;;;;;;;5.72;2.40;;;;;;;;;;1739483;82;21053;-65
2022/07/17 00:32:59;;;;;;;5.45;2.77;;;;;;;;;;1739521;82;21025;-65
2022/07/17 00:35:25;;;;;;;5.00;3.12;;;;;;;;;;1739637;82;21053;-65
2022/07/17 00:37:52;;;;;;;3.90;2.50;;;;;;;;;;1729332;82;21073;-64
2022/07/17 00:40:19;;;;;;;4.50;2.52;;;;;;;;;;1740679;81;21073;-64
2022/07/17 00:42:45;;;;;;;4.03;2.80;;;;;;;;;;1739701;82;21508;-64
2022/07/17 00:45:12;;;;;;;4.78;2.90;;;;;;;;;;1740661;81;21474;-64
2022/07/17 00:47:52;;;;;;;3.52;2.60;;;;;;;;;;1738951;82;21068;-64
2022/07/17 00:50:19;;;;;;;4.05;2.77;;;;;;;;;;1739122;82;21037;-64
2022/07/17 00:52:45;;;;;;;3.75;2.50;;;;;;;;;;1710059;83;21844;-63
2022/07/17 00:55:13;;;;;;;4.12;2.50;;;;;;;;;;1714087;82;21704;-64
2022/07/17 00:57:42;;;;;;;4.85;2.33;;;;;;;;;;1738662;82;21033;-63
2022/07/17 01:00:10;;;;;;;5.35;2.47;;;;;;;;;;1739602;82;21620;-63
2022/07/17 01:05:21;;;;;;;3.25;2.65;;;;;;;;;;1705744;82;21127;-62
2022/07/17 01:07:48;;;;;;;3.45;2.60;;;;;;;;;;1762458;81;21068;-62
2022/07/17 01:10:16;;;;;;;4.17;2.90;;;;;;;;;;1762769;81;21488;-62
2022/07/17 01:12:43;;;;;;;3.75;2.30;;;;;;;;;;1769647;80;21037;-62
2022/07/17 01:15:09;;;;;;;5.65;2.92;;;;;;;;;;1783428;80;21026;-62
2022/07/17 01:17:36;;;;;;;3.22;2.67;;;;;;;;;;1783894;80;21493;-62
2022/07/17 01:20:06;;;;;;;2.95;2.40;;;;;;;;;;1790384;80;21538;-62
2022/07/17 01:22:32;;;;;;;3.75;2.60;;;;;;;;;;1784401;80;20998;-61
2022/07/17 01:24:58;;;;;;;4.55;2.58;;;;;;;;;;1761986;81;21022;-62
2022/07/17 01:27:25;;;;;;;3.65;2.55;;;;;;;;;;1762083;81;21085;-62
2022/07/17 01:29:51;;;;;;;5.00;2.80;;;;;;;;;;1762227;81;21109;-62
2022/07/17 01:32:17;;;;;;;4.20;2.47;;;;;;;;;;1770736;80;21095;-62
2022/07/17 01:34:43;;;;;;;6.47;3.12;;;;;;;;;;1752469;82;20968;-65
2022/07/17 01:37:09;;;;;;;6.03;2.80;;;;;;;;;;1754266;82;21055;-62
2022/07/17 01:39:54;;;;;;;3.35;2.42;;;;;;;;;;1753893;82;21091;-62
2022/07/17 01:42:21;;;;;;;4.55;2.65;;;;;;;;;;1726451;82;21094;-62
2022/07/17 01:44:47;;;;;;;4.42;2.62;;;;;;;;;;1714891;84;21120;-62
2022/07/17 01:47:14;;;;;;;3.10;2.70;;;;;;;;;;1715259;84;21061;-62
2022/07/17 01:49:45;;;;;;;7.25;2.90;;;;;;;;;;1720570;82;21162;-62
2022/07/17 01:52:11;;;;;;;3.27;2.42;;;;;;;;;;1721462;83;21553;-61
2022/07/17 01:54:37;;;;;;;4.78;2.90;;;;;;;;;;1721858;83;21198;-62
2022/07/17 01:57:05;;;;;;;3.37;2.58;;;;;;;;;;1722117;83;21092;-62
2022/07/17 01:59:31;;;;;;;5.22;2.87;;;;;;;;;;1721969;83;21113;-62
2022/07/17 02:01:57;;;;;;;4.42;2.60;;;;;;;;;;1736428;82;21086;-62
2022/07/17 02:04:24;;;;;;;4.75;2.85;;;;;;;;;;1717826;82;21081;-62
2022/07/17 02:06:50;;;;;;;3.80;2.62;;;;;;;;;;1711310;84;21061;-62
2022/07/17 02:09:17;;;;;;;3.55;2.70;;;;;;;;;;1685180;84;21229;-62
2022/07/17 02:11:43;;;;;;;3.20;2.70;;;;;;;;;;1711260;84;21065;-62
2022/07/17 02:14:09;;;;;;;4.37;2.98;;;;;;;;;;1709286;84;21047;-62
2022/07/17 02:16:35;;;;;;;3.55;2.70;;;;;;;;;;1703931;84;21117;-62
2022/07/17 02:19:01;;;;;;;4.05;2.50;;;;;;;;;;1710433;83;21073;-62
2022/07/17 02:21:27;;;;;;;4.00;2.80;;;;;;;;;;1695507;83;21037;-62
2022/07/17 02:23:54;;;;;;;6.15;3.12;;;;;;;;;;1707739;84;21125;-62
2022/07/17 02:26:21;;;;;;;7.78;3.10;;;;;;;;;;1684361;85;21544;-62
2022/07/17 02:28:47;;;;;;;4.60;3.30;;;;;;;;;;1684121;85;21045;-62
2022/07/17 02:31:14;;;;;;;4.62;3.08;;;;;;;;;;1684213;85;21124;-62
2022/07/17 02:33:40;;;;;;;5.28;2.75;;;;;;;;;;1710748;83;21062;-62
2022/07/17 02:36:06;;;;;;;5.22;2.98;;;;;;;;;;1715217;83;21037;-62
2022/07/17 02:38:33;;;;;;;5.60;2.98;;;;;;;;;;1712762;84;21013;-60
2022/07/17 02:40:59;;;;;;;4.22;3.20;;;;;;;;;;1712826;84;21124;-61
2022/07/17 02:43:26;;;;;;;4.60;3.00;;;;;;;;;;1711894;84;21065;-62
2022/07/17 02:45:52;;;;;;;4.92;3.02;;;;;;;;;;1707138;83;21553;-62
2022/07/17 02:48:18;;;;;;;4.62;3.35;;;;;;;;;;1706786;83;21592;-62
2022/07/17 02:50:45;;;;;;;4.30;3.08;;;;;;;;;;1711068;83;21146;-62
2022/07/17 02:53:11;;;;;;;4.17;2.67;;;;;;;;;;1712240;83;21050;-62
2022/07/17 02:55:37;;;;;;;4.17;2.72;;;;;;;;;;1712989;84;21078;-62
2022/07/17 02:58:03;;;;;;;3.90;3.25;;;;;;;;;;1712101;84;21057;-62
2022/07/17 03:00:30;;;;;;;4.60;3.00;;;;;;;;;;1711220;83;21109;-62
2022/07/17 03:02:56;;;;;;;4.05;3.00;;;;;;;;;;1710690;82;21057;-62
2022/07/17 03:05:22;;;;;;;5.60;3.10;;;;;;;;;;1736882;82;21044;-62
2022/07/17 03:07:49;;;;;;;4.72;2.98;;;;;;;;;;1748151;80;20957;-62
2022/07/17 03:10:15;;;;;;;4.22;3.20;;;;;;;;;;1746981;80;21146;-62
2022/07/17 03:12:41;;;;;;;5.10;3.45;;;;;;;;;;1748313;82;21123;-62
2022/07/17 03:15:08;;;;;;;5.28;2.77;;;;;;;;;;1746547;82;21095;-62
2022/07/17 03:17:35;;;;;;;5.03;2.98;;;;;;;;;;1742005;80;22019;-62
2022/07/17 03:20:01;;;;;;;4.75;3.15;;;;;;;;;;1739324;82;21352;-62
2022/07/17 03:22:27;;;;;;;5.10;3.10;;;;;;;;;;1743571;82;21036;-62
2022/07/17 03:24:53;;;;;;;4.30;3.15;;;;;;;;;;1746641;82;21047;-62
2022/07/17 03:27:20;;;;;;;3.65;3.00;;;;;;;;;;1741621;80;21554;-61
2022/07/17 03:29:46;;;;;;;4.75;3.30;;;;;;;;;;1739405;82;21538;-62
2022/07/17 03:32:13;;;;;;;5.47;3.10;;;;;;;;;;1742933;80;21578;-62
2022/07/17 03:34:39;;;;;;;5.10;3.00;;;;;;;;;;1746538;80;21011;-62
2022/07/17 03:37:05;;;;;;;4.12;2.90;;;;;;;;;;1748221;82;21057;-62
2022/07/17 03:39:31;;;;;;;5.67;2.92;;;;;;;;;;1747879;82;21052;-62
2022/07/17 03:41:57;;;;;;;6.33;3.12;;;;;;;;;;1747252;82;21055;-62
2022/07/17 03:44:25;;;;;;;4.53;3.02;;;;;;;;;;1746017;80;21060;-62
2022/07/17 03:46:52;;;;;;;3.27;2.83;;;;;;;;;;1743429;80;21032;-62
2022/07/17 03:49:18;;;;;;;4.35;3.00;;;;;;;;;;1746752;82;21439;-62
2022/07/17 03:51:44;;;;;;;5.28;3.05;;;;;;;;;;1744163;80;21016;-62
2022/07/17 03:54:11;;;;;;;4.37;3.05;;;;;;;;;;1742478;82;21043;-62
2022/07/17 03:56:37;;;;;;;4.92;2.75;;;;;;;;;;1742986;80;21092;-62
2022/07/17 03:59:03;;;;;;;4.45;3.20;;;;;;;;;;1739839;80;21047;-61
2022/07/17 04:01:30;;;;;;;3.83;3.08;;;;;;;;;;1748219;81;21610;-62
2022/07/17 04:03:56;;;;;;;5.05;2.92;;;;;;;;;;1746431;81;21032;-63
2022/07/17 04:06:22;;;;;;;4.70;2.92;;;;;;;;;;1708102;84;21052;-62
2022/07/17 04:08:50;;;;;;;4.33;2.85;;;;;;;;;;1676392;85;21518;-62
2022/07/17 04:11:16;;;;;;;4.22;2.92;;;;;;;;;;1767765;80;21047;-61
2022/07/17 04:13:42;;;;;;;4.33;3.12;;;;;;;;;;1769857;80;20989;-62
2022/07/17 04:16:08;;;;;;;3.55;3.00;;;;;;;;;;1746817;81;21026;-62
2022/07/17 04:18:35;;;;;;;4.47;3.02;;;;;;;;;;1739319;82;21059;-63
2022/07/17 04:21:03;;;;;;;3.72;2.72;;;;;;;;;;1739965;80;21058;-62
2022/07/17 04:23:29;;;;;;;4.42;2.80;;;;;;;;;;1746953;82;21571;-62
2022/07/17 04:25:55;;;;;;;4.60;3.20;;;;;;;;;;1746054;80;21511;-62
2022/07/17 04:28:21;;;;;;;3.60;2.67;;;;;;;;;;1743219;80;21625;-63
2022/07/17 04:30:47;;;;;;;3.85;2.85;;;;;;;;;;1753764;80;21143;-63
2022/07/17 04:33:14;;;;;;;3.87;2.67;;;;;;;;;;1747106;81;21051;-63
2022/07/17 04:35:40;;;;;;;3.85;2.70;;;;;;;;;;1748023;82;21044;-63
2022/07/17 04:38:06;;;;;;;5.17;2.77;;;;;;;;;;1748007;81;21005;-64
2022/07/17 04:40:33;;;;;;;4.40;2.45;;;;;;;;;;1749859;80;21564;-64
2022/07/17 04:42:59;;;;;;;3.20;2.27;;;;;;;;;;1743390;80;22104;-64
2022/07/17 04:45:26;;;;;;;4.15;2.40;;;;;;;;;;1745501;80;21061;-64
2022/07/17 04:47:52;;;;;;;4.03;2.35;;;;;;;;;;1744773;80;21071;-62
2022/07/17 04:50:19;;;;;;;3.55;2.10;;;;;;;;;;1747885;80;21486;-63
2022/07/17 04:52:45;;;;;;;4.20;2.52;;;;;;;;;;1782065;80;21540;-62
2022/07/17 04:55:11;;;;;;;4.37;2.40;;;;;;;;;;1781885;80;21050;-62
2022/07/17 04:57:38;;;;;;;4.00;2.25;;;;;;;;;;1768549;80;21064;-63
2022/07/17 05:00:05;;;;;;;3.10;2.20;;;;;;;;;;1747873;81;21040;-62
2022/07/17 05:02:33;;;;;;;5.12;2.47;;;;;;;;;;1746927;82;21036;-62
2022/07/17 05:04:59;;;;;;;4.12;2.72;;;;;;;;;;1747282;81;21677;-62
2022/07/17 05:07:25;;;;;;;6.00;2.72;;;;;;;;;;1711360;84;21073;-62
2022/07/17 05:09:51;;;;;;;6.03;2.98;;;;;;;;;;1753339;80;21084;-62
2022/07/17 05:12:18;;;;;;;5.55;2.22;;;;;;;;;;1781921;80;21054;-62
2022/07/17 05:14:44;;;;;;;4.03;2.42;;;;;;;;;;1779936;80;21054;-63
2022/07/17 05:17:10;;;;;;;4.33;2.50;;;;;;;;;;1749819;82;21030;-63
2022/07/17 05:19:37;;;;;;;4.37;2.83;;;;;;;;;;1739974;80;21035;-62
2022/07/17 05:22:04;;;;;;;3.98;2.40;;;;;;;;;;1766592;80;22075;-63
2022/07/17 05:24:33;;;;;;;3.75;2.20;;;;;;;;;;1758942;80;21108;-62
2022/07/17 05:27:00;;;;;;;5.10;2.65;;;;;;;;;;1761785;81;21025;-63
2022/07/17 05:29:26;;;;;;;3.10;2.30;;;;;;;;;;1750359;80;21101;-63
2022/07/17 05:31:53;;;;;;;6.97;2.58;;;;;;;;;;1751319;80;22127;-63
2022/07/17 05:34:19;;;;;;;3.92;2.27;;;;;;;;;;1761402;80;21089;-63
2022/07/17 05:36:46;;;;;;;3.17;2.30;;;;;;;;;;1750929;80;21553;-63
2022/07/17 05:39:13;;;;;;;3.60;2.37;;;;;;;;;;1755364;80;20973;-63
2022/07/17 05:41:39;;;;;;;3.27;2.00;;;;;;;;;;1744831;81;20991;-63
2022/07/17 05:44:06;;;;;;;3.00;2.30;;;;;;;;;;1765300;80;21066;-64
2022/07/17 05:46:33;;;;;;;3.35;2.27;;;;;;;;;;1743687;80;21013;-64
2022/07/17 05:48:59;;;;;;;4.17;2.40;;;;;;;;;;1759887;80;21040;-64
2022/07/17 05:51:27;;;;;;;6.28;2.65;;;;;;;;;;1763231;80;22399;-64
2022/07/17 05:53:53;;;;;;;4.42;2.37;;;;;;;;;;1748704;80;21039;-63
2022/07/17 05:56:19;;;;;;;4.97;2.87;;;;;;;;;;1745744;80;21056;-63
2022/07/17 05:58:45;;;;;;;7.08;3.00;;;;;;;;;;1729340;82;21039;-64
2022/07/17 06:01:12;;;;;;;4.95;2.80;;;;;;;;;;1741665;80;20999;-63
2022/07/17 06:03:38;;;;;;;7.95;2.80;;;;;;;;;;1758750;79;21578;-63
2022/07/17 06:06:04;;;;;;;5.65;2.95;;;;;;;;;;1743539;80;21766;-62
2022/07/17 06:08:30;;;;;;;6.10;2.80;;;;;;;;;;1750256;82;20994;-62
2022/07/17 06:10:56;;;;;;;6.58;2.72;;;;;;;;;;1743481;81;21077;-61
2022/07/17 06:13:22;;;;;;;7.92;3.30;;;;;;;;;;1739967;82;22281;-62
2022/07/17 06:15:48;;;;;;;4.67;2.67;;;;;;;;;;1720097;83;22132;-62
2022/07/17 06:18:14;;;;;;;4.47;2.30;;;;;;;;;;1726777;82;21060;-63
2022/07/17 06:20:40;;;;;;;4.25;2.70;;;;;;;;;;1746623;82;21066;-62
2022/07/17 06:23:06;;;;;;;4.08;2.50;;;;;;;;;;1744102;82;21173;-63
2022/07/17 06:25:32;;;;;;;4.83;2.37;;;;;;;;;;1759664;81;21642;-64
2022/07/17 06:28:00;;;;;;;4.12;2.45;;;;;;;;;;1766794;81;21101;-62
2022/07/17 06:30:26;;;;;;;4.53;2.62;;;;;;;;;;1749518;81;20984;-63
2022/07/17 06:32:52;;;;;;;8.13;6.00;;;;;;;;;;1748212;81;21012;-64
2022/07/17 06:35:18;;;;;;;5.78;3.80;;;;;;;;;;1744271;81;21649;-63
2022/07/17 06:37:44;;;;;;;3.90;2.45;;;;;;;;;;1747720;82;21052;-63
2022/07/17 06:40:11;;;;;;;3.83;2.40;;;;;;;;;;1747330;82;21112;-63
2022/07/17 06:42:37;;;;;;;3.50;2.22;;;;;;;;;;1747705;82;21281;-62
2022/07/17 06:45:04;;;;;;;4.53;1.90;;;;;;;;;;1740695;82;21092;-62
2022/07/17 06:47:30;;;;;;;3.45;1.90;;;;;;;;;;1742870;80;20922;-62
2022/07/17 06:49:57;;;;;;;3.37;1.98;;;;;;;;;;1742561;82;20966;-62
2022/07/17 06:52:22;;;;;;;2.90;2.10;;;;;;;;;;1751135;82;20993;-63
2022/07/17 06:54:49;;;;;;;2.95;2.10;;;;;;;;;;1704892;82;21477;-63
2022/07/17 06:57:15;;;;;;;5.72;2.08;;;;;;;;;;1693030;83;21036;-63
2022/07/17 06:59:42;;;;;;;4.87;2.10;;;;;;;;;;1708196;82;21068;-63
2022/07/17 07:02:08;;;;;;;3.42;2.10;;;;;;;;;;1700204;84;21473;-63
2022/07/17 07:04:34;;;;;;;4.17;2.05;;;;;;;;;;1661961;84;21610;-63
2022/07/17 07:07:00;;;;;;;3.37;2.17;;;;;;;;;;1678746;84;21034;-62
2022/07/17 07:09:26;;;;;;;3.70;2.40;;;;;;;;;;1750654;82;21041;-63
2022/07/17 07:11:52;;;;;;;3.30;2.17;;;;;;;;;;1750101;80;20993;-63
2022/07/17 07:14:18;;;;;;;3.65;2.10;;;;;;;;;;1752272;80;21047;-63
2022/07/17 07:16:45;;;;;;;3.33;2.25;;;;;;;;;;1752084;82;21064;-63
2022/07/17 07:19:11;;;;;;;3.52;2.08;;;;;;;;;;1748511;82;21001;-63
2022/07/17 07:21:38;;;;;;;3.58;2.00;;;;;;;;;;1751818;82;21043;-63
2022/07/17 07:24:05;;;;;;;2.87;2.12;;;;;;;;;;1746345;81;21076;-63
2022/07/17 07:26:31;;;;;;;5.83;2.20;;;;;;;;;;1766320;81;21010;-63
2022/07/17 07:28:57;;;;;;;3.00;1.90;;;;;;;;;;1766777;81;21072;-63
2022/07/17 07:31:23;;;;;;;3.27;2.10;;;;;;;;;;1763464;81;21036;-62
2022/07/17 07:33:49;;;;;;;3.10;2.10;;;;;;;;;;1753674;80;21088;-63
2022/07/17 07:36:16;;;;;;;3.58;2.00;;;;;;;;;;1747481;80;21014;-63
2022/07/17 07:38:42;;;;;;;3.50;2.27;;;;;;;;;;1755932;80;21053;-63
2022/07/17 07:41:08;;;;;;;5.95;2.40;;;;;;;;;;1761321;81;21512;-63
2022/07/17 07:43:35;;;;;;;4.65;2.50;;;;;;;;;;1755187;80;21003;-63
2022/07/17 07:46:02;;;;;;;3.75;2.37;;;;;;;;;;1751553;80;21089;-64
2022/07/17 07:48:28;;;;;;;5.30;2.37;;;;;;;;;;1766810;80;21534;-63
2022/07/17 07:50:54;;;;;;;5.20;2.35;;;;;;;;;;1757396;80;21037;-63
2022/07/17 07:53:20;;;;;;;3.22;2.27;;;;;;;;;;1750326;80;21499;-62
2022/07/17 07:55:47;;;;;;;3.22;2.30;;;;;;;;;;1757675;80;21052;-63
2022/07/17 07:58:13;;;;;;;4.62;2.37;;;;;;;;;;1750583;80;20944;-62
2022/07/17 08:00:40;;;;;;;5.55;4.65;;;;;;;;;;1757054;80;21065;-63
2022/07/17 08:03:06;;;;;;;2.75;2.17;;;;;;;;;;1736490;81;21093;-63
2022/07/17 08:05:32;;;;;;;4.47;2.33;;;;;;;;;;1745710;81;20991;-64
2022/07/17 08:07:59;;;;;;;5.20;2.35;;;;;;;;;;1739297;82;21043;-63
2022/07/17 08:10:25;;;;;;;4.92;2.42;;;;;;;;;;1739365;82;21097;-64
2022/07/17 08:12:51;;;;;;;5.92;2.50;;;;;;;;;;1739225;81;21592;-63
2022/07/17 08:15:20;;;;;;;3.58;2.25;;;;;;;;;;1743577;81;21113;-63
2022/07/17 08:17:46;;;;;;;3.08;1.90;;;;;;;;;;1739456;82;21110;-64
2022/07/17 08:20:13;;;;;;;6.28;2.30;;;;;;;;;;1739230;82;21035;-64
2022/07/17 08:22:40;;;;;;;7.60;2.50;;;;;;;;;;1739438;82;21106;-64
2022/07/17 08:25:07;;;;;;;3.10;2.02;;;;;;;;;;1739798;81;21026;-65
2022/07/17 08:27:36;;;;;;;3.10;2.00;;;;;;;;;;1723470;81;21040;-65
2022/07/17 08:30:05;;;;;;;3.47;2.37;;;;;;;;;;1718728;83;21088;-63
2022/07/17 08:32:31;;;;;;;4.08;2.10;;;;;;;;;;1716825;83;21056;-63
2022/07/17 08:34:57;;;;;;;4.85;1.95;;;;;;;;;;1734189;81;21055;-64
2022/07/17 08:37:24;;;;;;;2.67;1.90;;;;;;;;;;1708395;84;21065;-64
2022/07/17 08:39:51;;;;;;;3.62;1.98;;;;;;;;;;1746825;82;21496;-64
2022/07/17 08:42:17;;;;;;;2.72;1.90;;;;;;;;;;1746933;82;21055;-64
2022/07/17 08:44:44;;;;;;;5.15;1.98;;;;;;;;;;1744983;81;21102;-63
2022/07/17 08:47:10;;;;;;;2.62;1.70;;;;;;;;;;1726412;81;21088;-63
2022/07/17 08:49:38;;;;;;;1.85;1.47;;;;;;;;;;1718856;83;21024;-63
2022/07/17 08:52:04;;;;;;;2.83;1.62;;;;;;;;;;1718299;83;21072;-64
2022/07/17 08:54:30;;;;;;;2.25;1.70;;;;;;;;;;1721686;81;21111;-63
2022/07/17 08:56:57;;;;;;;2.25;1.50;;;;;;;;;;1739619;82;20996;-63
2022/07/17 08:59:23;;;;;;;3.40;1.50;;;;;;;;;;1739511;82;21031;-63
2022/07/17 09:01:50;;;;;;;3.67;1.60;;;;;;;;;;1739552;82;21183;-64
2022/07/17 09:04:17;;;;;;;4.67;1.62;;;;;;;;;;1739076;81;21094;-63
2022/07/17 09:06:43;;;;;;;1.80;1.70;;;;;;;;;;1733030;82;21562;-64
2022/07/17 09:09:11;;;;;;;1.55;1.40;;;;;;;;;;1728096;83;21149;-63
2022/07/17 09:11:44;;;;;;;3.30;1.50;;;;;;;;;;1727394;83;21130;-64
2022/07/17 09:14:11;;;;;;;;;;;;;;;;;;1730503;83;21760;-64
2022/07/17 09:16:39;;;;;;;3.17;1.42;;;;;;;;;;1727875;81;20247;-64
2022/07/17 09:19:05;;;;;;;2.30;1.25;;;;;;;;;;1725975;83;21095;-64
2022/07/17 09:21:32;;;;;;;1.67;1.40;;;;;;;;;;1728081;83;21035;-64
2022/07/17 09:23:59;;;;;;;3.37;1.17;;;;;;;;;;1727801;83;21008;-64
2022/07/17 09:26:26;;;;;;;1.72;1.12;;;;;;;;;;1727861;82;21075;-64
2022/07/17 09:28:54;;;;;;;1.07;1.00;;;;;;;;;;1727659;83;21094;-63
2022/07/17 09:31:27;;;;;;;2.83;1.37;;;;;;;;;;1727802;83;21067;-63
2022/07/17 09:33:53;;;;;;;1.25;1.12;;;;;;;;;;1727922;83;21001;-63
2022/07/17 09:36:19;;;;;;;3.70;1.65;;;;;;;;;;1728089;82;21071;-63
2022/07/17 09:38:45;;;;;;;10.15;1.90;;;;;;;;;;1727815;83;21067;-64
2022/07/17 09:41:13;;;;;;;3.90;1.22;;;;;;;;;;1727829;83;21047;-64
2022/07/17 09:43:40;;;;;;;2.27;1.20;;;;;;;;;;1727775;83;21602;-64
2022/07/17 09:46:07;;;;;;;2.77;1.40;;;;;;;;;;1728111;82;21040;-64
2022/07/17 09:48:34;;;;;;;1.65;1.35;;;;;;;;;;1727853;83;21079;-64
2022/07/17 09:51:00;;;;;;;2.08;1.40;;;;;;;;;;1727628;83;21075;-64
2022/07/17 09:53:26;;;;;;;3.08;1.57;;;;;;;;;;1728027;83;21088;-64
2022/07/17 09:55:52;;;;;;;2.50;1.40;;;;;;;;;;1728163;82;21015;-63
2022/07/17 09:58:19;;;;;;;2.90;1.62;;;;;;;;;;1727631;81;21095;-63
2022/07/17 10:00:47;;;;;;;4.17;1.57;;;;;;;;;;1753609;81;21103;-63
2022/07/17 10:03:15;;;;;;;1.42;1.30;;;;;;;;;;1750885;80;21020;-64
2022/07/17 10:05:41;;;;;;;2.58;1.70;;;;;;;;;;1742880;81;20969;-64
2022/07/17 10:08:07;;;;;;;3.55;1.92;;;;;;;;;;1727684;81;21031;-64
2022/07/17 10:10:33;;;;;;;2.05;1.50;;;;;;;;;;1745600;81;21080;-63
2022/07/17 10:13:00;;;;;;;2.72;1.42;;;;;;;;;;1736305;81;21077;-63
2022/07/17 10:15:27;;;;;;;1.57;1.42;;;;;;;;;;1741360;81;21521;-64
2022/07/17 10:18:04;;;;;;;1.92;1.57;;;;;;;;;;1737703;81;20994;-62
2022/07/17 10:20:31;;;;;;;1.80;1.60;;;;;;;;;;1722950;82;21040;-63
2022/07/17 10:22:58;;;;;;;1.45;1.32;;;;;;;;;;1726462;81;21064;-64
2022/07/17 10:25:24;;;;;;;4.42;1.40;;;;;;;;;;1712926;81;21041;-63
2022/07/17 10:27:53;;;;;;;2.10;1.30;;;;;;;;;;1739107;81;21076;-64
2022/07/17 10:30:21;;;;;;;2.98;1.40;;;;;;;;;;1734610;81;21090;-64
2022/07/17 10:32:51;;;;;;;27.93;3.20;;;;;;;;;;1730985;81;21582;-65
2022/07/17 10:35:17;;;;;;;2.42;1.27;;;;;;;;;;1744816;81;21069;-64
2022/07/17 10:37:43;;;;;;;2.87;1.52;;;;;;;;;;1727268;81;22022;-64
2022/07/17 10:40:18;;;;;;;1.62;1.25;;;;;;;;;;1723796;82;21003;-64
2022/07/17 10:42:59;;;;;;;1.57;1.15;;;;;;;;;;1720808;82;21044;-63
2022/07/17 10:45:27;;;;;;;2.85;1.40;;;;;;;;;;1736491;82;21086;-64
2022/07/17 10:48:05;;;;;;;2.27;1.60;;;;;;;;;;1736401;82;21083;-64
2022/07/17 10:50:36;;;;;;;1.45;1.27;;;;;;;;;;1735991;82;21017;-63
2022/07/17 10:53:06;;;;;;;3.40;1.77;;;;;;;;;;1737057;81;21120;-62
2022/07/17 10:55:32;;;;;;;2.12;1.55;;;;;;;;;;1743317;81;21047;-63
2022/07/17 10:57:58;;;;;;;4.70;3.47;;;;;;;;;;1739774;81;21497;-64
2022/07/17 11:00:25;;;;;;;3.45;2.30;;;;;;;;;;1739910;81;20994;-64
2022/07/17 11:02:52;;;;;;;3.10;2.10;;;;;;;;;;1732636;81;21071;-64
2022/07/17 11:05:18;;;;;;;1.55;1.45;;;;;;;;;;1728521;81;21634;-64
2022/07/17 11:07:48;;;;;;;1.92;1.40;;;;;;;;;;1718227;82;21046;-64
2022/07/17 11:10:14;;;;;;;1.55;1.27;;;;;;;;;;1704128;84;21651;-64
2022/07/17 11:12:41;;;;;;;2.40;1.40;;;;;;;;;;1716228;82;21071;-62
2022/07/17 11:15:09;;;;;;;1.65;1.30;;;;;;;;;;1711602;82;21552;-63
2022/07/17 11:17:35;;;;;;;2.72;1.32;;;;;;;;;;1709510;84;21090;-62
2022/07/17 11:20:02;;;;;;;3.40;1.80;;;;;;;;;;1708568;82;21105;-63
2022/07/17 11:22:28;;;;;;;2.58;1.50;;;;;;;;;;1711388;82;20997;-63
2022/07/17 11:24:54;;;;;;;3.98;1.45;;;;;;;;;;1721009;82;21085;-63
2022/07/17 11:29:25;;;;;;;2.80;1.55;;;;;;;;;;1816456;79;22888;-64
2022/07/17 11:31:57;;;;;;;1.98;1.42;;;;;;;;;;1777505;80;21009;-63
2022/07/17 11:34:26;;;;;;;43.50;29.63;;;;;;;;;;1766248;80;21095;-63
2022/07/17 11:36:52;;;;;;;27.65;21.02;;;;;;;;;;1768060;80;21036;-63
2022/07/17 11:39:19;;;;;;;5.72;2.00;;;;;;;;;;1762675;80;21497;-66
2022/07/17 11:41:52;;;;;;;2.37;1.57;;;;;;;;;;1789705;80;21442;-65
2022/07/17 11:44:18;;;;;;;2.80;1.70;;;;;;;;;;1792530;80;20974;-65
2022/07/17 11:46:45;;;;;;;2.25;1.30;;;;;;;;;;1783417;80;21117;-64
2022/07/17 11:49:32;;;;;;;1.87;1.30;;;;;;;;;;1761721;80;21615;-64
2022/07/17 11:51:59;;;;;;;1.25;1.15;;;;;;;;;;1786880;80;21037;-63
2022/07/17 11:54:25;;;;;;;2.42;1.50;;;;;;;;;;1791056;80;21111;-63
2022/07/17 11:56:53;;;;;;;1.77;1.37;;;;;;;;;;1792637;80;21095;-64
2022/07/17 11:59:24;;;;;;;1.80;1.47;;;;;;;;;;1785597;79;20996;-64
2022/07/17 12:01:50;;;;;;;2.05;1.82;;;;;;;;;;1757578;80;21079;-64
2022/07/17 12:04:17;;;;;;;4.45;1.85;;;;;;;;;;1774330;80;21129;-64
2022/07/17 12:06:43;;;;;;;1.57;1.40;;;;;;;;;;1760348;80;21068;-65
2022/07/17 12:09:10;;;;;;;3.22;1.35;;;;;;;;;;1743138;80;21085;-66
2022/07/17 12:11:48;;;;;;;2.37;1.60;;;;;;;;;;1752213;80;21006;-64
2022/07/17 12:14:14;;;;;;;2.05;1.55;;;;;;;;;;1754904;80;21064;-63
2022/07/17 12:16:40;;;;;;;2.85;1.45;;;;;;;;;;1745281;82;21025;-64
2022/07/17 12:19:19;;;;;;;2.40;1.70;;;;;;;;;;1709109;81;21083;-63
2022/07/17 12:21:46;;;;;;;51.92;31.35;;;;;;;;;;1707879;84;21013;-64
2022/07/17 12:24:21;;;;;;;7.35;5.72;;;;;;;;;;1703306;83;21069;-64
2022/07/17 12:26:49;;;;;;;4.35;2.20;;;;;;;;;;1733565;83;21109;-65
2022/07/17 12:29:16;;;;;;;2.67;1.90;;;;;;;;;;1691710;83;21051;-64
2022/07/17 12:31:42;;;;;;;3.70;1.57;;;;;;;;;;1698072;83;21616;-65
2022/07/17 12:34:08;;;;;;;2.05;1.80;;;;;;;;;;1722117;82;21524;-63
2022/07/17 12:36:34;;;;;;;2.77;1.60;;;;;;;;;;1721851;82;21028;-64
2022/07/17 12:39:01;;;;;;;2.67;1.50;;;;;;;;;;1734853;82;21076;-64
2022/07/17 12:41:27;;;;;;;2.62;1.50;;;;;;;;;;1721551;83;21023;-63
2022/07/17 12:43:53;;;;;;;1.85;1.70;;;;;;;;;;1721721;82;21087;-65
2022/07/17 12:46:19;;;;;;;3.52;1.50;;;;;;;;;;1720509;83;21596;-65
2022/07/17 12:48:45;;;;;;;3.10;1.50;;;;;;;;;;1698801;84;22162;-64
2022/07/17 12:51:12;;;;;;;4.58;1.37;;;;;;;;;;1717858;83;20995;-64
2022/07/17 12:53:39;;;;;;;5.80;1.90;;;;;;;;;;1721705;83;21520;-63
2022/07/17 12:56:06;;;;;;;3.62;1.40;;;;;;;;;;1783502;80;21095;-64
2022/07/17 12:58:33;;;;;;;1.42;1.25;;;;;;;;;;1751251;80;21124;-64
2022/07/17 13:00:59;;;;;;;1.70;1.30;;;;;;;;;;1762437;80;20957;-63
2022/07/17 13:03:25;;;;;;;1.47;1.32;;;;;;;;;;1763357;80;21159;-62
2022/07/17 13:05:52;;;;;;;1.50;1.40;;;;;;;;;;1709923;82;21517;-63
2022/07/17 13:08:18;;;;;;;30.00;24.20;;;;;;;;;;1690236;84;21033;-64
2022/07/17 13:10:44;;;;;;;20.30;14.10;;;;;;;;;;1756173;80;21021;-65
2022/07/17 13:13:11;;;;;;;18.35;13.30;;;;;;;;;;1782416;80;21516;-64
2022/07/17 13:15:37;;;;;;;2.55;1.80;;;;;;;;;;1726009;82;21109;-64
2022/07/17 13:18:03;;;;;;;1.62;1.40;;;;;;;;;;1727121;82;21082;-63
2022/07/17 13:20:30;;;;;;;2.50;1.32;;;;;;;;;;1716192;82;21041;-63
2022/07/17 13:22:57;;;;;;;1.52;1.20;;;;;;;;;;1699185;82;21283;-62
2022/07/17 13:25:24;;;;;;;2.17;1.20;;;;;;;;;;1748523;81;21067;-61
2022/07/17 13:27:50;;;;;;;1.75;1.20;;;;;;;;;;1740200;81;21050;-63
2022/07/17 13:30:16;;;;;;;1.60;1.47;;;;;;;;;;1744655;82;21006;-63
2022/07/17 13:32:42;;;;;;;1.20;1.10;;;;;;;;;;1698971;84;21065;-61
2022/07/17 13:35:08;;;;;;;2.15;1.42;;;;;;;;;;1712077;84;21501;-62
2022/07/17 13:37:36;;;;;;;14.35;8.93;;;;;;;;;;1717632;82;21546;-61
2022/07/17 13:40:03;;;;;;;20.90;13.05;;;;;;;;;;1674223;83;21037;-61
2022/07/17 13:42:30;;;;;;;7.08;5.45;;;;;;;;;;1761248;81;21041;-61
2022/07/17 13:44:57;;;;;;;3.12;1.52;;;;;;;;;;1736935;81;21073;-62
2022/07/17 13:47:22;;;;;;;1.55;1.20;;;;;;;;;;1692312;85;21025;-63
2022/07/17 13:49:49;;;;;;;1.30;1.20;;;;;;;;;;1739863;81;21084;-62
2022/07/17 13:52:15;;;;;;;1.57;1.42;;;;;;;;;;1753919;81;21012;-63
2022/07/17 13:54:41;;;;;;;4.55;1.45;;;;;;;;;;1750798;80;21077;-64
2022/07/17 13:57:07;;;;;;;1.50;1.25;;;;;;;;;;1736167;80;21021;-62
2022/07/17 13:59:34;;;;;;;1.42;1.30;;;;;;;;;;1738957;82;21121;-61
2022/07/17 14:02:01;;;;;;;1.52;1.20;;;;;;;;;;1736782;80;21072;-62
2022/07/17 14:04:27;;;;;;;1.47;1.20;;;;;;;;;;1739639;81;21109;-63
2022/07/17 14:06:53;;;;;;;1.80;1.27;;;;;;;;;;1739194;81;21636;-62
2022/07/17 14:09:19;;;;;;;1.90;1.30;;;;;;;;;;1740646;80;21525;-64
2022/07/17 14:11:46;;;;;;;3.05;1.67;;;;;;;;;;1738305;81;21092;-63
2022/07/17 14:14:11;;;;;;;2.30;1.60;;;;;;;;;;1740121;80;21640;-62
2022/07/17 14:16:38;;;;;;;2.10;1.50;;;;;;;;;;1738444;80;21044;-63
2022/07/17 14:19:04;;;;;;;1.85;1.40;;;;;;;;;;1739390;80;21139;-62
2022/07/17 14:21:32;;;;;;;2.05;1.55;;;;;;;;;;1739179;81;21025;-61
2022/07/17 14:23:58;;;;;;;2.25;1.32;;;;;;;;;;1738675;80;21034;-61
2022/07/17 14:26:24;;;;;;;1.02;1.02;;;;;;;;;;1741413;80;21497;-62
2022/07/17 14:28:50;;;;;;;2.17;1.10;;;;;;;;;;1746506;80;21022;-65
2022/07/17 14:31:16;;;;;;;1.55;1.10;;;;;;;;;;1751578;80;21033;-63
2022/07/17 14:33:43;;;;;;;1.32;1.20;;;;;;;;;;1751392;80;21029;-63
2022/07/17 14:36:09;;;;;;;1.27;1.10;;;;;;;;;;1714593;82;21128;-62
2022/07/17 14:38:36;;;;;;;1.65;1.20;;;;;;;;;;1749283;80;21105;-63
2022/07/17 14:41:02;;;;;;;1.10;1.00;;;;;;;;;;1743998;80;21496;-62
2022/07/17 14:43:29;;;;;;;1.80;1.10;;;;;;;;;;1751890;80;21077;-62
2022/07/17 14:45:55;;;;;;;1.32;1.12;;;;;;;;;;1747062;80;21099;-63